Time;durP1;ratioP1;P1;durP2;ratioP2;P2;SDS_P1;SDS_P2;PMS_P1;PMS_P2;Temp;Humidity;BMP_temperature;BMP_pressure;BME280_temperature;BME280_humidity;BME280_pressure;Samples;Min_cycle;Max_cycle;Signal;HPM_P1;HPM_P2
2022/10/02 00:00:10;;;;;;;12.63;8.53;;;;;;;13.68;100.00;100067.44;1724640;83;20853;-38
2022/10/02 00:03:03;;;;;;;13.60;8.08;;;;;;;13.69;100.00;100067.00;1689488;83;21858;-38
2022/10/02 00:05:40;;;;;;;15.40;7.33;;;;;;;13.65;100.00;100063.22;1689293;84;21057;-38
2022/10/02 00:08:26;;;;;;;10.75;8.50;;;;;;;13.64;100.00;100064.56;1724519;83;20974;-39
2022/10/02 00:11:14;;;;;;;16.25;7.70;;;;;;;13.65;100.00;100070.16;1689766;85;21233;-38
2022/10/02 00:13:56;;;;;;;16.48;7.47;;;;;;;13.65;100.00;100070.16;1689283;84;20931;-39
2022/10/02 00:16:30;;;;;;;13.48;7.83;;;;;;;13.65;100.00;100071.46;1724340;83;21271;-38
2022/10/02 00:18:57;;;;;;;18.12;8.83;;;;;;;13.65;100.00;100077.96;1689518;85;20992;-38
2022/10/02 00:21:45;;;;;;;12.33;8.00;;;;;;;13.67;100.00;100072.25;1724423;82;21008;-38
2022/10/02 00:24:15;;;;;;;17.45;8.30;;;;;;;13.72;100.00;100072.09;1689522;85;20907;-39
2022/10/02 00:27:16;;;;;;;13.00;8.03;;;;;;;13.77;100.00;100062.34;1689508;84;20991;-38
2022/10/02 00:29:54;;;;;;;20.52;8.58;;;;;;;13.80;100.00;100055.72;1724240;82;20999;-38
2022/10/02 00:33:05;;;;;;;15.58;8.45;;;;;;;13.82;100.00;100051.78;1689521;84;21618;-38
2022/10/02 00:35:38;;;;;;;15.30;8.03;;;;;;;13.83;100.00;100058.20;1724295;82;20957;-38
2022/10/02 00:38:13;;;;;;;14.20;7.58;;;;;;;13.85;100.00;100058.16;1719209;83;20984;-38
2022/10/02 00:41:16;;;;;;;16.40;8.30;;;;;;;13.83;100.00;100051.70;1714745;83;21000;-38
2022/10/02 00:44:19;;;;;;;13.10;8.40;;;;;;;13.83;100.00;100048.27;1680002;85;21226;-38
2022/10/02 00:47:14;;;;;;;18.23;8.13;;;;;;;13.81;100.00;100051.39;1714730;83;20984;-38
2022/10/02 00:49:53;;;;;;;14.93;8.28;;;;;;;13.80;100.00;100051.83;1680168;85;20900;-39
2022/10/02 00:53:51;;;;;;;16.48;7.55;;;;;;;13.83;100.00;100043.06;1798351;79;22565;-38
2022/10/02 00:56:27;;;;;;;18.80;7.62;;;;;;;13.83;100.00;100043.06;1758157;80;20979;-39
2022/10/02 00:59:08;;;;;;;17.37;8.30;;;;;;;13.86;100.00;100033.37;1758265;81;21264;-38
2022/10/02 01:01:40;;;;;;;19.60;7.95;;;;;;;13.88;100.00;100017.24;1758002;81;20845;-39
2022/10/02 01:04:12;;;;;;;15.48;7.90;;;;;;;13.89;100.00;100008.56;1758124;81;20861;-40
2022/10/02 01:06:38;;;;;;;14.28;8.38;;;;;;;13.92;100.00;100003.67;1758492;81;20940;-39
2022/10/02 01:09:05;;;;;;;11.65;7.85;;;;;;;13.95;100.00;100000.95;1758053;81;20871;-39
2022/10/02 01:11:33;;;;;;;16.40;8.73;;;;;;;13.98;100.00;99984.38;1758143;81;21242;-39
2022/10/02 01:13:59;;;;;;;18.32;8.25;;;;;;;13.97;100.00;99974.41;1758074;81;20964;-39
2022/10/02 01:16:26;;;;;;;15.32;8.43;;;;;;;13.95;100.00;99961.92;1758101;81;21038;-39
2022/10/02 01:18:53;;;;;;;11.85;7.72;;;;;;;13.95;100.00;99955.41;1757932;81;20945;-39
2022/10/02 01:21:35;;;;;;;16.90;9.33;;;;;;;13.94;100.00;99945.48;1757907;81;21330;-39
2022/10/02 01:24:12;;;;;;;14.80;8.48;;;;;;;13.95;100.00;99941.10;1723673;82;22325;-38
2022/10/02 01:26:39;;;;;;;14.65;9.33;;;;;;;13.94;100.00;99937.67;1742374;82;20889;-39
2022/10/02 01:29:05;;;;;;;18.67;10.28;;;;;;;13.93;100.00;99928.61;1750028;82;21482;-38
2022/10/02 01:31:34;;;;;;;15.28;9.93;;;;;;;13.94;100.00;99919.90;1749713;82;20976;-38
2022/10/02 01:34:01;;;;;;;18.37;10.72;;;;;;;13.92;100.00;99912.61;1749636;81;21533;-39
2022/10/02 01:36:29;;;;;;;17.60;11.18;;;;;;;13.91;100.00;99905.28;1720341;82;21257;-39
2022/10/02 01:38:56;;;;;;;15.40;11.25;;;;;;;13.90;100.00;99901.42;1720173;82;20936;-39
2022/10/02 01:41:23;;;;;;;15.65;11.93;;;;;;;13.89;100.00;99896.70;1720132;82;20991;-39
2022/10/02 01:43:52;;;;;;;18.25;11.48;;;;;;;13.89;100.00;99895.83;1749756;82;20928;-39
2022/10/02 01:46:34;;;;;;;21.90;11.88;;;;;;;13.88;100.00;99899.34;1749955;82;21023;-39
2022/10/02 01:49:31;;;;;;;18.17;11.88;;;;;;;13.87;100.00;99904.98;1749453;82;21350;-39
2022/10/02 01:52:32;;;;;;;16.90;12.00;;;;;;;13.87;100.00;99901.09;1745857;81;20988;-39
2022/10/02 01:55:23;;;;;;;23.00;12.00;;;;;;;13.88;100.00;99901.48;1736433;82;20980;-39
2022/10/02 01:58:24;;;;;;;19.42;12.05;;;;;;;13.90;100.00;99898.39;1686757;82;20937;-39
2022/10/02 02:01:26;;;;;;;21.42;13.30;;;;;;;13.94;100.00;99895.19;1735439;82;20885;-39
2022/10/02 02:04:24;;;;;;;18.62;12.95;;;;;;;13.97;100.00;99900.73;1722428;82;20957;-40
2022/10/02 02:07:27;;;;;;;15.75;12.75;;;;;;;13.98;100.00;99893.31;1715245;82;21510;-38
2022/10/02 02:10:05;;;;;;;22.27;12.45;;;;;;;14.00;100.00;99891.02;1616798;85;21071;-38
2022/10/02 02:12:42;;;;;;;18.87;12.43;;;;;;;14.02;100.00;99889.67;1735604;82;20925;-38
2022/10/02 02:15:17;;;;;;;24.27;13.65;;;;;;;14.01;100.00;99882.30;1736170;82;20988;-38
2022/10/02 02:18:01;;;;;;;21.27;12.85;;;;;;;14.01;100.00;99866.69;1735287;82;22047;-39
2022/10/02 02:20:31;;;;;;;26.95;14.07;;;;;;;14.02;100.00;99865.81;1735947;81;20953;-39
2022/10/02 02:23:10;;;;;;;16.45;12.53;;;;;;;14.02;100.00;99860.61;1735852;82;20968;-39
2022/10/02 02:25:39;;;;;;;24.85;14.47;;;;;;;14.03;100.00;99859.69;1735842;82;21015;-39
2022/10/02 02:28:09;;;;;;;29.55;13.08;;;;;;;14.07;100.00;99859.95;1736171;82;20933;-38
2022/10/02 02:30:36;;;;;;;19.65;13.10;;;;;;;14.14;100.00;99859.67;1736211;82;21088;-38
2022/10/02 02:33:10;;;;;;;21.27;12.13;;;;;;;14.22;100.00;99860.19;1735923;82;20948;-38
2022/10/02 02:35:43;;;;;;;27.20;12.93;;;;;;;14.29;100.00;99856.42;1735930;82;21519;-39
2022/10/02 02:38:23;;;;;;;21.68;12.58;;;;;;;14.38;100.00;99844.73;1710795;82;20941;-39
2022/10/02 02:40:49;;;;;;;22.58;12.07;;;;;;;14.47;100.00;99861.72;1735946;82;21067;-39
2022/10/02 02:43:24;;;;;;;24.63;11.88;;;;;;;14.56;100.00;99873.05;1686785;82;21050;-39
2022/10/02 02:46:02;;;;;;;22.58;11.80;;;;;;;14.62;100.00;99880.59;1715019;82;20933;-39
2022/10/02 02:48:40;;;;;;;24.07;12.33;;;;;;;14.66;100.00;99873.48;1735871;82;20980;-39
2022/10/02 02:51:24;;;;;;;20.92;11.53;;;;;;;14.73;100.00;99880.58;1735792;82;21024;-38
2022/10/02 02:54:08;;;;;;;21.17;12.03;;;;;;;14.75;100.00;99877.45;1753712;81;20919;-39
2022/10/02 02:56:36;;;;;;;20.30;11.22;;;;;;;14.77;100.00;99870.41;1757720;81;21546;-39
2022/10/02 02:59:08;;;;;;;32.55;12.30;;;;;;;14.79;100.00;99859.48;1757698;81;20951;-39
2022/10/02 03:01:35;;;;;;;20.20;11.57;;;;;;;14.80;100.00;99857.27;1756717;81;20927;-39
2022/10/02 03:04:03;;;;;;;21.85;11.83;;;;;;;14.80;100.00;99848.15;1757643;81;20943;-38
2022/10/02 03:06:46;;;;;;;17.20;10.55;;;;;;;14.78;100.00;99835.18;1754932;81;20991;-39
2022/10/02 03:09:16;;;;;;;13.93;10.32;;;;;;;14.80;100.00;99869.82;1757568;81;21088;-38
2022/10/02 03:12:12;;;;;;;18.10;11.20;;;;;;;14.83;100.00;99867.55;1757937;81;20928;-39
2022/10/02 03:15:13;;;;;;;25.88;11.28;;;;;;;14.84;100.00;99865.33;1757713;81;20983;-39
2022/10/02 03:18:09;;;;;;;19.42;10.78;;;;;;;14.87;100.00;99863.87;1757671;81;20872;-38
2022/10/02 03:21:02;;;;;;;17.73;9.90;;;;;;;14.89;100.00;99862.48;1749298;81;21008;-39
2022/10/02 03:23:37;;;;;;;17.05;10.78;;;;;;;14.89;100.00;99847.72;1757673;81;21303;-38
2022/10/02 03:26:18;;;;;;;20.43;10.00;;;;;;;14.89;100.00;99846.41;1757594;81;20888;-39
2022/10/02 03:28:49;;;;;;;10.23;8.85;;;;;;;14.90;100.00;99847.23;1757346;81;20920;-39
2022/10/02 03:31:17;;;;;;;19.12;9.43;;;;;;;14.90;100.00;99848.10;1730397;81;20896;-39
2022/10/02 03:33:44;;;;;;;14.63;9.48;;;;;;;14.91;100.00;99838.06;1757767;81;20861;-39
2022/10/02 03:36:11;;;;;;;17.40;9.70;;;;;;;14.94;100.00;99826.19;1757732;81;21285;-39
2022/10/02 03:38:38;;;;;;;21.25;10.35;;;;;;;14.97;100.00;99816.54;1757618;81;20976;-39
2022/10/02 03:41:05;;;;;;;10.93;8.45;;;;;;;14.98;100.00;99819.09;1729733;81;20948;-39
2022/10/02 03:43:32;;;;;;;19.92;9.15;;;;;;;14.99;100.00;99825.98;1757636;81;20865;-39
2022/10/02 03:45:59;;;;;;;24.52;8.85;;;;;;;15.02;100.00;99824.98;1757647;81;20971;-40
2022/10/02 03:48:26;;;;;;;13.60;8.78;;;;;;;15.05;100.00;99815.27;1757580;81;21147;-40
2022/10/02 03:50:53;;;;;;;19.07;8.83;;;;;;;15.07;100.00;99810.83;1757594;81;20940;-40
2022/10/02 03:53:22;;;;;;;20.30;9.00;;;;;;;15.10;100.00;99804.63;1753083;81;21070;-40
2022/10/02 03:56:09;;;;;;;17.40;8.58;;;;;;;15.09;100.00;99797.26;1749786;82;20940;-40
2022/10/02 03:58:38;;;;;;;20.05;8.80;;;;;;;15.07;100.00;99793.05;1740925;82;20912;-39
2022/10/02 04:01:19;;;;;;;15.93;9.55;;;;;;;15.05;100.00;99776.65;1749803;82;21888;-39
2022/10/02 04:03:57;;;;;;;15.43;9.23;;;;;;;15.00;100.00;99764.27;1749634;82;20952;-39
2022/10/02 04:06:50;;;;;;;16.23;8.15;;;;;;;14.94;100.00;99754.53;1749942;82;20857;-39
2022/10/02 04:09:31;;;;;;;21.12;9.35;;;;;;;14.89;100.00;99738.28;1749157;82;20923;-38
2022/10/02 04:12:15;;;;;;;21.60;9.73;;;;;;;14.83;100.00;99736.42;1732789;82;21663;-39
2022/10/02 04:15:24;;;;;;;15.30;10.35;;;;;;;14.76;100.00;99741.06;1749998;82;21123;-38
2022/10/02 04:18:09;;;;;;;15.72;10.23;;;;;;;14.71;100.00;99746.96;1749842;82;21019;-39
2022/10/02 04:20:53;;;;;;;13.60;9.80;;;;;;;14.64;100.00;99742.45;1750158;81;20971;-39
2022/10/02 04:23:24;;;;;;;13.48;9.85;;;;;;;14.58;100.00;99738.41;1749607;81;21479;-39
2022/10/02 04:25:56;;;;;;;17.95;10.53;;;;;;;14.54;100.00;99727.75;1749881;82;21454;-39
2022/10/02 04:28:28;;;;;;;14.25;10.18;;;;;;;14.51;100.00;99728.72;1749962;82;21942;-39
2022/10/02 04:30:55;;;;;;;18.02;9.70;;;;;;;14.49;100.00;99733.16;1722019;82;20992;-39
2022/10/02 04:33:23;;;;;;;18.65;10.78;;;;;;;14.47;100.00;99730.23;1722319;82;21043;-38
2022/10/02 04:36:10;;;;;;;19.70;10.35;;;;;;;14.46;100.00;99720.73;1749747;82;20987;-38
2022/10/02 04:38:58;;;;;;;21.07;10.72;;;;;;;14.48;100.00;99708.48;1722543;82;20956;-38
2022/10/02 04:41:54;;;;;;;15.83;10.63;;;;;;;14.48;100.00;99700.67;1749932;81;22087;-38
2022/10/02 04:44:39;;;;;;;16.95;10.53;;;;;;;14.49;100.00;99708.42;1749717;82;21509;-38
2022/10/02 04:47:13;;;;;;;15.98;11.03;;;;;;;14.51;100.00;99704.42;1749882;82;20992;-38
2022/10/02 04:49:51;;;;;;;19.37;11.97;;;;;;;14.53;100.00;99701.32;1749499;82;21513;-39
2022/10/02 04:52:30;;;;;;;22.32;11.65;;;;;;;14.55;100.00;99705.14;1749789;82;20896;-39
2022/10/02 04:55:11;;;;;;;16.23;11.83;;;;;;;14.56;100.00;99684.69;1749889;82;21269;-39
2022/10/02 04:58:24;;;;;;;16.93;11.78;;;;;;;14.58;100.00;99683.71;1749722;82;20889;-38
2022/10/02 05:01:06;;;;;;;15.63;12.03;;;;;;;14.59;100.00;99710.58;1749917;82;20976;-39
2022/10/02 05:04:20;;;;;;;17.15;13.20;;;;;;;14.62;100.00;99715.20;1749715;82;20878;-39
2022/10/02 05:07:07;;;;;;;17.90;13.25;;;;;;;14.65;100.00;99703.33;1749887;82;20959;-39
2022/10/02 05:09:52;;;;;;;18.20;13.30;;;;;;;14.72;100.00;99683.53;1749948;82;21272;-39
2022/10/02 05:12:26;;;;;;;;;;;;;;;14.74;100.00;99669.97;1752371;82;20921;-38
2022/10/02 05:15:23;;;;;;;17.77;11.95;;;;;;;14.75;100.00;99673.81;1749904;82;20123;-38
2022/10/02 05:18:09;;;;;;;20.45;13.18;;;;;;;14.77;100.00;99702.38;1750086;81;20861;-39
2022/10/02 05:20:44;;;;;;;23.42;13.18;;;;;;;14.79;100.00;99705.78;1749824;82;21462;-39
2022/10/02 05:23:45;;;;;;;17.52;13.05;;;;;;;14.84;100.00;99682.09;1749827;82;21177;-38
2022/10/02 05:26:30;;;;;;;16.12;13.30;;;;;;;14.86;100.00;99677.20;1749673;82;20959;-38
2022/10/02 05:29:27;;;;;;;22.17;13.10;;;;;;;14.88;100.00;99657.57;1750155;82;20980;-39
2022/10/02 05:31:57;;;;;;;;;;;;;;;14.91;100.00;99654.84;1752197;82;20881;-39
2022/10/02 05:34:50;;;;;;;19.32;13.30;;;;;;;14.95;100.00;99645.95;1749942;82;20134;-38
2022/10/02 05:37:44;;;;;;;17.00;13.38;;;;;;;14.97;100.00;99648.02;1749646;81;21323;-39
2022/10/02 05:40:37;;;;;;;16.45;12.98;;;;;;;14.99;100.00;99653.14;1736553;82;20940;-38
2022/10/02 05:43:20;;;;;;;22.32;12.98;;;;;;;15.02;100.00;99643.41;1750058;82;20980;-39
2022/10/02 05:45:54;;;;;;;18.45;13.40;;;;;;;15.05;100.00;99638.52;1745572;82;20963;-40
2022/10/02 05:48:27;;;;;;;20.17;14.25;;;;;;;15.07;100.00;99630.99;1749970;82;20892;-40
2022/10/02 05:51:05;;;;;;;17.95;13.62;;;;;;;15.10;100.00;99619.58;1750297;82;21126;-39
2022/10/02 05:53:52;;;;;;;20.08;14.20;;;;;;;15.11;100.00;99616.05;1743671;81;20964;-39
2022/10/02 05:56:39;;;;;;;20.65;14.05;;;;;;;15.13;100.00;99607.69;1739465;81;21526;-40
2022/10/02 05:59:17;;;;;;;18.60;14.45;;;;;;;15.14;100.00;99601.55;1739174;82;20940;-40
2022/10/02 06:01:46;;;;;;;19.60;13.13;;;;;;;15.16;100.00;99604.92;1734850;82;21419;-40
2022/10/02 06:04:38;;;;;;;21.73;14.40;;;;;;;15.19;100.00;99594.81;1736019;82;21761;-39
2022/10/02 06:07:08;;;;;;;21.20;14.05;;;;;;;15.19;100.00;99600.86;1736078;82;20988;-39
2022/10/02 06:09:55;;;;;;;21.10;14.65;;;;;;;15.22;100.00;99583.75;1735995;82;20976;-39
2022/10/02 06:12:38;;;;;;;22.62;15.30;;;;;;;15.23;100.00;99584.61;1735966;82;21535;-39
2022/10/02 06:15:32;;;;;;;19.20;15.05;;;;;;;15.26;100.00;99574.47;1736024;82;21434;-39
2022/10/02 06:18:07;;;;;;;29.52;15.85;;;;;;;15.29;100.00;99565.20;1736099;82;21958;-39
2022/10/02 06:20:48;;;;;;;24.07;15.80;;;;;;;15.29;100.00;99565.20;1736206;82;21343;-39
2022/10/02 06:23:25;;;;;;;23.47;15.72;;;;;;;15.31;100.00;99560.75;1739398;82;20866;-39
2022/10/02 06:26:05;;;;;;;27.65;17.23;;;;;;;15.33;100.00;99556.30;1736079;82;20929;-39
2022/10/02 06:29:01;;;;;;;24.70;16.75;;;;;;;15.33;100.00;99541.95;1736213;82;20898;-40
2022/10/02 06:31:54;;;;;;;25.97;17.42;;;;;;;15.36;100.00;99533.49;1735891;82;21314;-39
2022/10/02 06:34:21;;;;;;;28.62;17.50;;;;;;;15.36;100.00;99533.49;1735955;81;20880;-39
2022/10/02 06:37:19;;;;;;;31.62;17.60;;;;;;;15.39;100.00;99525.98;1715278;82;20925;-39
2022/10/02 06:40:00;;;;;;;30.95;18.62;;;;;;;15.42;100.00;99518.47;1725465;82;20861;-39
2022/10/02 06:42:32;;;;;;;28.40;18.40;;;;;;;15.43;100.00;99507.94;1735848;82;20956;-39
2022/10/02 06:45:28;;;;;;;22.07;17.55;;;;;;;15.47;100.00;99500.33;1736205;82;21889;-39
2022/10/02 06:48:15;;;;;;;30.72;19.60;;;;;;;15.49;100.00;99498.47;1736165;82;20849;-40
2022/10/02 06:50:58;;;;;;;32.50;18.77;;;;;;;15.52;100.00;99493.56;1735423;82;21506;-39
2022/10/02 06:54:07;;;;;;;30.70;19.70;;;;;;;15.55;100.00;99487.36;1717533;82;20987;-39
2022/10/02 06:56:48;;;;;;;25.90;18.82;;;;;;;15.58;100.00;99479.36;1719680;82;20909;-39
2022/10/02 06:59:42;;;;;;;32.50;19.12;;;;;;;15.59;100.00;99471.91;1749845;82;21255;-39
2022/10/02 07:02:34;;;;;;;31.80;18.75;;;;;;;15.61;100.00;99479.19;1725917;82;20991;-39
2022/10/02 07:05:12;;;;;;;25.17;17.70;;;;;;;15.62;100.00;99469.95;1749520;82;20980;-39
2022/10/02 07:08:00;;;;;;;27.93;19.48;;;;;;;15.66;100.00;99481.08;1749917;81;20987;-39
2022/10/02 07:10:54;;;;;;;30.15;19.40;;;;;;;15.68;100.00;99484.44;1749956;82;20884;-39
2022/10/02 07:13:41;;;;;;;24.95;17.62;;;;;;;15.70;100.00;99481.27;1749743;80;21286;-39
2022/10/02 07:16:20;;;;;;;27.25;17.73;;;;;;;15.72;100.00;99479.90;1749884;82;20925;-39
2022/10/02 07:19:17;;;;;;;29.45;19.80;;;;;;;15.74;100.00;99473.66;1749802;81;20912;-39
2022/10/02 07:22:10;;;;;;;25.00;19.48;;;;;;;15.75;100.00;99471.91;1727715;82;20949;-39
2022/10/02 07:25:14;;;;;;;29.32;19.87;;;;;;;15.77;100.00;99463.05;1749835;82;20968;-39
2022/10/02 07:27:53;;;;;;;26.15;19.60;;;;;;;15.77;100.00;99454.39;1749991;82;21237;-39
2022/10/02 07:30:20;;;;;;;25.57;18.92;;;;;;;15.80;100.00;99443.78;1749862;82;21504;-39
2022/10/02 07:33:15;;;;;;;29.52;19.82;;;;;;;15.81;100.00;99441.55;1749756;81;20888;-39
2022/10/02 07:36:05;;;;;;;34.70;21.25;;;;;;;15.84;100.00;99438.77;1750144;82;20924;-39
2022/10/02 07:38:50;;;;;;;33.40;20.15;;;;;;;15.87;100.00;99426.02;1749971;82;21466;-39
2022/10/02 07:41:37;;;;;;;32.05;18.57;;;;;;;15.90;100.00;99420.17;1749765;81;21309;-39
2022/10/02 07:44:21;;;;;;;29.90;18.70;;;;;;;15.95;100.00;99426.44;1749289;82;20964;-39
2022/10/02 07:47:15;;;;;;;24.55;17.10;;;;;;;15.99;100.00;99421.90;1749184;82;20905;-39
2022/10/02 07:50:00;;;;;;;26.25;18.07;;;;;;;16.01;100.00;99420.86;1749921;82;20953;-39
2022/10/02 07:53:11;;;;;;;23.38;17.37;;;;;;;16.05;100.00;99411.09;1750076;82;21457;-39
2022/10/02 07:55:40;;;;;;;27.87;17.82;;;;;;;16.07;100.00;99407.48;1749664;81;21108;-39
2022/10/02 07:58:32;;;;;;;21.93;15.65;;;;;;;16.10;100.00;99394.70;1749985;81;20901;-39
2022/10/02 08:01:07;;;;;;;20.50;14.43;;;;;;;16.11;100.00;99387.24;1749494;82;20964;-39
2022/10/02 08:03:38;;;;;;;21.07;13.40;;;;;;;16.14;100.00;99375.80;1749961;82;20929;-38
2022/10/02 08:06:05;;;;;;;19.75;12.65;;;;;;;16.17;100.00;99377.77;1748990;82;20913;-39
2022/10/02 08:08:40;;;;;;;21.25;12.98;;;;;;;16.19;100.00;99367.22;1749812;82;21144;-39
2022/10/02 08:11:12;;;;;;;13.85;11.08;;;;;;;16.22;100.00;99371.80;1750012;82;20845;-38
2022/10/02 08:14:13;;;;;;;19.05;12.00;;;;;;;16.25;100.00;99368.63;1750053;82;21036;-39
2022/10/02 08:16:46;;;;;;;20.77;11.30;;;;;;;16.26;100.00;99361.17;1749868;82;20925;-38
2022/10/02 08:19:16;;;;;;;16.57;10.72;;;;;;;16.30;100.00;99356.14;1750273;81;21463;-38
2022/10/02 08:21:54;;;;;;;14.93;10.80;;;;;;;16.32;100.00;99342.52;1749704;81;21058;-39
2022/10/02 08:24:34;;;;;;;17.60;9.58;;;;;;;16.33;100.00;99336.37;1749730;81;20924;-38
2022/10/02 08:27:05;;;;;;;19.12;10.35;;;;;;;16.34;100.00;99329.76;1737156;82;20972;-39
2022/10/02 08:29:52;;;;;;;11.75;9.65;;;;;;;16.34;100.00;99321.92;1749846;82;20940;-38
2022/10/02 08:32:21;;;;;;;12.75;9.43;;;;;;;16.36;100.00;99326.59;1750155;81;20929;-38
2022/10/02 08:34:48;;;;;;;13.75;9.65;;;;;;;16.39;100.00;99319.02;1722626;82;21134;-38
2022/10/02 08:37:57;;;;;;;12.82;9.05;;;;;;;16.39;100.00;99320.32;1746823;82;20944;-38
2022/10/02 08:40:54;;;;;;;12.55;9.28;;;;;;;16.40;100.00;99306.33;1749620;82;20964;-39
2022/10/02 08:43:58;;;;;;;13.70;9.90;;;;;;;16.41;100.00;99306.70;1716868;83;20956;-38
2022/10/02 08:46:34;;;;;;;13.13;9.18;;;;;;;16.41;100.00;99301.48;1716682;83;20964;-39
2022/10/02 08:49:28;;;;;;;13.62;9.75;;;;;;;16.43;100.00;99290.95;1741044;82;21156;-39
2022/10/02 08:52:35;;;;;;;18.35;9.33;;;;;;;16.44;100.00;99286.10;1748942;82;20968;-39
2022/10/02 08:55:43;;;;;;;12.28;9.28;;;;;;;16.46;100.00;99288.15;1749895;82;21545;-39
2022/10/02 08:58:42;;;;;;;9.23;8.38;;;;;;;16.46;100.00;99275.09;1749812;81;20991;-39
2022/10/02 09:01:20;;;;;;;16.70;8.85;;;;;;;16.45;100.00;99279.94;1749214;82;20920;-40
2022/10/02 09:04:21;;;;;;;11.80;8.68;;;;;;;16.44;100.00;99279.57;1749378;82;21166;-39
2022/10/02 09:07:03;;;;;;;11.93;8.63;;;;;;;16.41;100.00;99281.07;1749905;82;21462;-39
2022/10/02 09:10:10;;;;;;;13.28;8.13;;;;;;;16.37;100.00;99269.97;1748302;82;20976;-39
2022/10/02 09:13:10;;;;;;;16.32;8.78;;;;;;;16.33;100.00;99258.89;1723128;82;21620;-39
2022/10/02 09:16:02;;;;;;;12.28;9.23;;;;;;;16.28;100.00;99250.95;1750085;81;20952;-39
2022/10/02 09:19:02;;;;;;;12.68;9.13;;;;;;;16.25;100.00;99235.48;1750304;81;21221;-39
2022/10/02 09:21:56;;;;;;;13.20;8.73;;;;;;;16.22;100.00;99232.13;1749828;82;21533;-39
2022/10/02 09:24:45;;;;;;;17.73;8.98;;;;;;;16.20;100.00;99234.00;1749937;81;20925;-39
2022/10/02 09:27:26;;;;;;;14.43;8.33;;;;;;;16.19;100.00;99224.49;1749573;82;21458;-39
2022/10/02 09:30:25;;;;;;;9.15;7.83;;;;;;;16.17;100.00;99221.14;1749898;81;21379;-39
2022/10/02 09:33:15;;;;;;;15.08;8.13;;;;;;;16.18;100.00;99220.66;1750006;81;21243;-39
2022/10/02 09:36:10;;;;;;;9.03;7.03;;;;;;;16.20;100.00;99219.64;1749397;82;20963;-39
2022/10/02 09:39:04;;;;;;;10.80;6.87;;;;;;;16.20;100.00;99193.53;1749948;82;20917;-39
2022/10/02 09:42:19;;;;;;;7.47;6.37;;;;;;;16.21;100.00;99203.50;1749902;82;20987;-39
2022/10/02 09:45:41;;;;;;;12.98;7.12;;;;;;;16.19;100.00;99192.31;1749954;82;21418;-39
2022/10/02 09:48:44;;;;;;;13.50;7.83;;;;;;;16.20;100.00;99186.16;1750007;82;21051;-39
2022/10/02 09:51:40;;;;;;;10.05;6.75;;;;;;;16.22;100.00;99177.77;1719114;83;21490;-39
2022/10/02 09:54:20;;;;;;;7.72;6.95;;;;;;;16.22;100.00;99168.17;1719198;83;20948;-39
2022/10/02 09:57:30;;;;;;;11.28;6.28;;;;;;;16.21;100.00;99163.03;1746592;81;21407;-39
2022/10/02 10:00:14;;;;;;;11.30;6.33;;;;;;;16.22;100.00;99151.66;1757676;81;20975;-39
2022/10/02 10:02:53;;;;;;;8.23;5.90;;;;;;;16.20;100.00;99156.14;1753202;81;21121;-39
2022/10/02 10:05:49;;;;;;;9.53;5.72;;;;;;;16.19;100.00;99142.27;1757562;81;21492;-39
2022/10/02 10:08:56;;;;;;;10.55;5.33;;;;;;;16.18;100.00;99143.20;1757515;81;20939;-39
2022/10/02 10:11:40;;;;;;;;;;;;;;;16.13;100.00;99137.41;1760347;81;20932;-39
2022/10/02 10:14:24;;;;;;;10.45;5.15;;;;;;;16.01;100.00;99120.73;1757289;81;20082;-40
2022/10/02 10:17:18;;;;;;;8.50;4.33;;;;;;;15.95;100.00;99122.44;1757682;81;21230;-39
2022/10/02 10:20:13;;;;;;;5.78;4.65;;;;;;;15.91;100.00;99115.73;1757633;81;20869;-39
2022/10/02 10:23:04;;;;;;;8.05;4.30;;;;;;;15.85;100.00;99122.61;1757623;81;20936;-39
2022/10/02 10:25:49;;;;;;;5.87;4.28;;;;;;;15.80;100.00;99124.19;1703772;81;20991;-39
2022/10/02 10:28:33;;;;;;;10.23;4.58;;;;;;;15.74;100.00;99114.95;1756881;81;20892;-39
2022/10/02 10:31:24;;;;;;;7.00;4.47;;;;;;;15.73;100.00;99104.64;1757782;81;21920;-39
2022/10/02 10:34:34;;;;;;;9.85;4.33;;;;;;;15.66;100.00;99109.38;1757678;81;20940;-39
2022/10/02 10:40:22;;;;;;;4.90;4.50;;;;;;;15.61;100.00;99101.83;1757749;81;20866;-39
2022/10/02 10:42:58;;;;;;;9.10;4.60;;;;;;;15.61;100.00;99090.09;1757611;81;20963;-39
2022/10/02 10:46:05;;;;;;;9.80;4.83;;;;;;;15.63;100.00;99090.02;1757894;81;21505;-39
2022/10/02 10:49:01;;;;;;;11.80;5.17;;;;;;;15.64;100.00;99078.16;1757637;81;20936;-39
2022/10/02 10:52:15;;;;;;;7.37;5.00;;;;;;;15.65;100.00;99075.11;1750442;81;21075;-38
2022/10/02 10:55:07;;;;;;;5.53;4.53;;;;;;;15.64;100.00;99068.21;1752960;81;21648;-39
2022/10/02 10:57:55;;;;;;;5.62;4.92;;;;;;;15.64;100.00;99057.30;1735955;82;20941;-39
2022/10/02 11:00:56;;;;;;;4.55;4.12;;;;;;;15.65;100.00;99058.16;1735884;81;21230;-39
2022/10/02 11:03:59;;;;;;;9.40;4.50;;;;;;;15.64;100.00;99094.30;1735289;82;20881;-39
2022/10/02 11:07:14;;;;;;;3.65;3.35;;;;;;;15.61;100.00;99077.05;1736003;82;20985;-39
2022/10/02 11:10:07;;;;;;;7.15;4.37;;;;;;;15.58;100.00;99079.85;1735704;81;20870;-39
2022/10/02 11:12:54;;;;;;;7.45;4.72;;;;;;;15.55;100.00;99096.17;1735599;82;21514;-39
2022/10/02 11:15:32;;;;;;;8.88;5.20;;;;;;;15.50;100.00;99101.17;1735948;82;21206;-39
2022/10/02 11:18:07;;;;;;;9.15;5.47;;;;;;;15.44;100.00;99108.07;1734697;82;21000;-39
2022/10/02 11:21:05;;;;;;;7.17;5.70;;;;;;;15.38;100.00;99116.27;1735970;82;20933;-39
2022/10/02 11:24:22;;;;;;;11.95;6.10;;;;;;;15.34;100.00;99109.56;1735817;81;20984;-40
2022/10/02 11:27:42;;;;;;;11.83;6.45;;;;;;;15.26;100.00;99101.34;1735661;81;20956;-40
2022/10/02 11:30:39;;;;;;;10.30;6.55;;;;;;;15.18;100.00;99101.34;1735328;82;21243;-40
2022/10/02 11:33:37;;;;;;;10.58;6.42;;;;;;;15.13;100.00;99096.02;1735852;82;20882;-40
2022/10/02 11:36:21;;;;;;;15.03;7.10;;;;;;;15.08;100.00;99100.22;1735759;82;20929;-40
2022/10/02 11:39:15;;;;;;;10.68;7.37;;;;;;;15.06;100.00;99099.47;1735926;82;20941;-39
2022/10/02 11:42:22;;;;;;;9.55;7.25;;;;;;;15.03;100.00;99099.63;1735802;82;21371;-40
2022/10/02 11:45:07;;;;;;;13.55;7.37;;;;;;;15.02;100.00;99090.98;1735738;81;21072;-39
2022/10/02 11:48:01;;;;;;;8.78;7.08;;;;;;;15.00;100.00;99095.90;1736078;82;21522;-40
2022/10/02 11:50:54;;;;;;;9.63;6.67;;;;;;;14.98;100.00;99092.55;1736002;82;20930;-40
2022/10/02 11:53:39;;;;;;;8.40;6.87;;;;;;;14.97;100.00;99093.48;1735402;82;20937;-40
2022/10/02 11:56:45;;;;;;;9.03;6.08;;;;;;;14.94;100.00;99097.94;1741054;81;20944;-39
2022/10/02 11:59:34;;;;;;;8.75;6.65;;;;;;;14.94;100.00;99104.94;1713088;82;21095;-40
2022/10/02 12:02:31;;;;;;;10.35;7.17;;;;;;;14.91;100.00;99103.34;1738904;82;21478;-39
2022/10/02 12:05:14;;;;;;;12.28;7.03;;;;;;;14.91;100.00;99105.94;1743744;82;20976;-40
2022/10/02 12:07:46;;;;;;;9.90;6.70;;;;;;;14.92;100.00;99103.70;1744072;82;20949;-40
2022/10/02 12:10:51;;;;;;;14.28;7.08;;;;;;;14.93;100.00;99100.17;1744116;82;20989;-39
2022/10/02 12:13:29;;;;;;;8.13;7.03;;;;;;;14.93;100.00;99100.17;1743939;82;21145;-39
2022/10/02 12:16:09;;;;;;;17.82;8.03;;;;;;;14.97;100.00;99095.63;1743986;82;20980;-39
2022/10/02 12:19:03;;;;;;;9.35;6.72;;;;;;;14.99;100.00;99098.98;1743748;82;20889;-39
2022/10/02 12:28:13;;;;;;;7.83;6.22;;;;;;;15.08;100.00;99100.22;1743158;82;21939;-39
2022/10/02 12:30:48;;;;;;;11.73;6.55;;;;;;;15.10;100.00;99102.27;1712161;82;20928;-39
2022/10/02 12:33:47;;;;;;;9.40;5.97;;;;;;;15.14;100.00;99101.16;1743144;82;21592;-39
2022/10/02 12:36:33;;;;;;;7.20;5.37;;;;;;;15.15;100.00;99104.13;1743944;82;21019;-39
2022/10/02 12:39:31;;;;;;;9.60;5.40;;;;;;;15.12;100.00;99108.22;1743437;82;20838;-39
2022/10/02 12:42:32;;;;;;;4.30;3.33;;;;;;;15.07;100.00;99114.17;1730289;82;21086;-39
2022/10/02 12:45:21;;;;;;;4.05;3.30;;;;;;;14.93;100.00;99109.77;1743500;82;20921;-39